createdAt,value
2022-11-18T00:01:15.653Z,11.20
2022-11-18T00:03:43.819Z,7.07
2022-11-18T00:06:16.954Z,16.63
2022-11-18T00:08:44.707Z,19.67
2022-11-18T00:11:34.507Z,7.50
2022-11-18T00:14:20.006Z,8.13
2022-11-18T00:16:56.181Z,6.95
2022-11-18T00:19:32.795Z,11.48
2022-11-18T00:22:01.426Z,7.95
2022-11-18T00:24:29.005Z,7.45
2022-11-18T00:26:57.013Z,7.10
2022-11-18T00:29:28.303Z,7.93
2022-11-18T00:31:56.714Z,6.28
2022-11-18T00:34:26.019Z,13.48
2022-11-18T00:36:53.663Z,7.30
2022-11-18T00:39:21.729Z,10.25
2022-11-18T00:42:09.062Z,8.00
2022-11-18T00:44:37.224Z,12.77
2022-11-18T00:47:04.947Z,6.60
2022-11-18T00:49:32.558Z,10.60
2022-11-18T00:52:01.385Z,12.00
2022-11-18T00:54:28.983Z,11.43
2022-11-18T00:56:56.540Z,7.70
2022-11-18T00:59:24.080Z,12.52
2022-11-18T01:01:51.755Z,13.95
2022-11-18T01:04:19.783Z,6.72
2022-11-18T01:06:47.352Z,8.85
2022-11-18T01:09:15.366Z,13.07
2022-11-18T01:12:01.708Z,11.27
2022-11-18T01:14:29.265Z,10.17
2022-11-18T01:19:25.673Z,13.10
2022-11-18T01:21:53.151Z,9.05
2022-11-18T01:24:20.732Z,9.13
2022-11-18T01:29:16.061Z,13.02
2022-11-18T01:32:08.837Z,7.53
2022-11-18T01:34:31.727Z,10.40
2022-11-18T01:36:59.305Z,10.38
2022-11-18T01:39:26.912Z,10.85
2022-11-18T01:41:54.351Z,9.55
2022-11-18T01:44:58.235Z,8.20
2022-11-18T01:47:40.556Z,19.40
2022-11-18T01:50:09.895Z,10.00
2022-11-18T01:52:38.002Z,9.88
2022-11-18T01:55:16.146Z,8.95
2022-11-18T01:57:47.894Z,12.77
2022-11-18T02:00:16.012Z,13.80
2022-11-18T02:02:43.497Z,7.50
2022-11-18T02:05:11.807Z,10.73
2022-11-18T02:07:43.833Z,7.72
2022-11-18T02:10:20.243Z,9.70
2022-11-18T02:12:50.169Z,8.43
2022-11-18T02:15:23.983Z,13.27
2022-11-18T02:17:58.481Z,11.63
2022-11-18T02:20:39.767Z,8.30
2022-11-18T02:23:25.772Z,11.40
2022-11-18T02:26:11.798Z,13.07
2022-11-18T02:28:54.501Z,6.78
2022-11-18T02:31:45.371Z,11.68
2022-11-18T02:35:05.350Z,9.05
2022-11-18T02:38:04.954Z,11.80
2022-11-18T02:40:39.522Z,11.88
2022-11-18T02:43:29.291Z,13.13
2022-11-18T02:46:01.765Z,10.90
2022-11-18T02:48:32.748Z,10.40
2022-11-18T02:51:03.037Z,10.32
2022-11-18T02:53:33.886Z,13.13
2022-11-18T02:56:03.814Z,7.05
2022-11-18T02:58:31.491Z,9.63
2022-11-18T03:01:01.496Z,10.95
2022-11-18T03:03:32.596Z,9.07
2022-11-18T03:06:13.858Z,10.82
2022-11-18T03:09:17.141Z,10.70
2022-11-18T03:12:03.177Z,12.45
2022-11-18T03:15:22.428Z,11.90
2022-11-18T03:18:16.351Z,10.65
2022-11-18T03:20:57.137Z,9.02
2022-11-18T03:23:36.515Z,8.27
2022-11-18T03:26:17.523Z,6.38
2022-11-18T03:28:53.403Z,12.43
2022-11-18T03:31:28.450Z,6.72
2022-11-18T03:34:14.898Z,7.35
2022-11-18T03:36:51.783Z,6.22
2022-11-18T03:42:01.880Z,6.20
2022-11-18T03:44:37.113Z,8.52
2022-11-18T03:47:10.788Z,13.88
2022-11-18T03:49:50.927Z,3.90
2022-11-18T03:52:25.252Z,9.05
2022-11-18T03:54:56.298Z,9.05
2022-11-18T03:57:50.380Z,7.70
2022-11-18T04:00:20.431Z,5.68
2022-11-18T04:02:50.827Z,11.55
2022-11-18T04:05:19.583Z,5.18
2022-11-18T04:07:56.240Z,9.90
2022-11-18T04:10:31.675Z,11.40
2022-11-18T04:13:07.649Z,9.52
2022-11-18T04:15:39.127Z,11.10
2022-11-18T04:18:07.823Z,6.05
2022-11-18T04:20:37.653Z,6.82
2022-11-18T04:23:07.013Z,7.10
2022-11-18T04:25:35.266Z,7.35
2022-11-18T04:28:03.109Z,4.18
2022-11-18T04:30:31.380Z,7.18
2022-11-18T04:32:58.880Z,11.65
2022-11-18T04:37:54.860Z,10.02
2022-11-18T04:40:22.333Z,7.53
2022-11-18T04:42:49.892Z,10.23
2022-11-18T04:47:44.699Z,11.23
2022-11-18T04:50:12.201Z,4.07
2022-11-18T04:52:39.780Z,6.35
2022-11-18T04:55:07.564Z,9.90
2022-11-18T04:57:35.080Z,8.02
2022-11-18T05:02:29.947Z,9.02
2022-11-18T05:04:57.427Z,6.78
2022-11-18T05:09:52.117Z,9.27
2022-11-18T05:15:06.010Z,9.00
2022-11-18T05:17:35.718Z,7.97
2022-11-18T05:20:03.424Z,6.63
2022-11-18T05:22:30.914Z,10.02
2022-11-18T05:24:58.566Z,9.02
2022-11-18T05:27:26.337Z,10.90
2022-11-18T05:29:53.960Z,7.75
2022-11-18T05:32:21.508Z,9.60
2022-11-18T05:34:49.096Z,7.32
2022-11-18T05:39:44.135Z,7.65
2022-11-18T05:42:30.335Z,8.38
2022-11-18T05:44:58.908Z,7.38
2022-11-18T05:47:27.431Z,3.78
2022-11-18T05:49:54.934Z,8.05
2022-11-18T05:54:51.016Z,7.53
2022-11-18T05:57:18.624Z,7.75
2022-11-18T05:59:49.110Z,7.95
2022-11-18T06:02:24.644Z,4.55
2022-11-18T06:05:02.580Z,6.88
2022-11-18T06:07:43.921Z,7.00
2022-11-18T06:10:33.370Z,10.18
2022-11-18T06:13:05.287Z,6.70
2022-11-18T06:15:37.195Z,8.15
2022-11-18T06:18:17.833Z,11.68
2022-11-18T06:20:46.034Z,7.25
2022-11-18T06:23:13.838Z,6.60
2022-11-18T06:25:42.077Z,5.47
2022-11-18T06:28:12.454Z,4.50
2022-11-18T06:30:40.467Z,8.00
2022-11-18T06:33:08.583Z,8.32
2022-11-18T06:35:36.258Z,9.15
2022-11-18T06:38:05.141Z,7.50
2022-11-18T06:40:34.932Z,6.18
2022-11-18T06:43:28.411Z,8.13
2022-11-18T06:46:20.751Z,13.02
2022-11-18T06:48:48.929Z,9.40
2022-11-18T06:51:16.643Z,14.18
2022-11-18T06:53:44.632Z,4.28
2022-11-18T06:56:14.434Z,8.15
2022-11-18T06:58:42.182Z,10.68
2022-11-18T07:01:19.140Z,7.85
2022-11-18T07:03:47.129Z,7.30
2022-11-18T07:06:19.484Z,7.68
2022-11-18T07:08:47.192Z,6.32
2022-11-18T07:11:17.675Z,11.55
2022-11-18T07:13:45.984Z,8.38
2022-11-18T07:16:16.195Z,7.95
2022-11-18T07:18:45.592Z,10.25
2022-11-18T07:21:18.354Z,8.60
2022-11-18T07:23:46.790Z,3.63
2022-11-18T07:26:14.843Z,8.93
2022-11-18T07:28:42.930Z,6.53
2022-11-18T07:31:12.873Z,9.38
2022-11-18T07:33:41.845Z,6.38
2022-11-18T07:36:12.234Z,6.47
2022-11-18T07:38:40.194Z,12.63
2022-11-18T07:41:13.698Z,13.25
2022-11-18T07:43:42.014Z,9.90
2022-11-18T07:46:14.019Z,9.25
2022-11-18T07:48:44.076Z,8.27
2022-11-18T07:51:12.587Z,13.13
2022-11-18T07:53:40.873Z,6.93
2022-11-18T07:56:09.323Z,10.10
2022-11-18T07:58:37.435Z,8.60
2022-11-18T08:01:09.644Z,9.27
2022-11-18T08:03:37.709Z,12.07
2022-11-18T08:06:06.572Z,14.77
2022-11-18T08:08:34.563Z,17.85
2022-11-18T08:11:06.132Z,10.50
2022-11-18T08:13:34.351Z,13.57
2022-11-18T08:16:02.999Z,9.40
2022-11-18T08:18:32.209Z,10.13
2022-11-18T08:21:04.075Z,8.80
2022-11-18T08:23:36.127Z,8.48
2022-11-18T08:26:15.674Z,7.47
2022-11-18T08:28:44.757Z,12.52
2022-11-18T08:31:21.408Z,11.43
2022-11-18T08:33:49.411Z,8.60
2022-11-18T08:36:19.139Z,7.38
2022-11-18T08:38:46.875Z,10.52
2022-11-18T08:41:15.879Z,6.82
2022-11-18T08:43:44.301Z,7.13
2022-11-18T08:46:11.892Z,9.88
2022-11-18T08:48:39.615Z,9.70
2022-11-18T08:51:11.420Z,8.65
2022-11-18T08:53:39.140Z,10.02
2022-11-18T08:56:06.753Z,6.90
2022-11-18T08:58:34.386Z,7.45
2022-11-18T09:01:07.001Z,9.13
2022-11-18T09:03:35.782Z,10.82
2022-11-18T09:06:12.238Z,7.97
2022-11-18T09:08:40.625Z,7.50
2022-11-18T09:11:16.856Z,13.20
2022-11-18T09:16:34.514Z,7.57
2022-11-18T09:19:18.472Z,12.88
2022-11-18T09:21:50.035Z,11.18
2022-11-18T09:24:17.903Z,11.73
2022-11-18T09:26:45.928Z,8.45
2022-11-18T09:29:13.331Z,10.52
2022-11-18T09:31:40.852Z,8.80
2022-11-18T09:34:10.384Z,10.43
2022-11-18T09:36:38.136Z,6.75
2022-11-18T09:39:05.796Z,8.27
2022-11-18T09:41:49.309Z,8.98
2022-11-18T09:44:25.514Z,7.95
2022-11-18T09:47:05.073Z,7.63
2022-11-18T09:49:38.931Z,7.55
2022-11-18T09:52:18.748Z,9.50
2022-11-18T09:54:46.805Z,7.88
2022-11-18T09:57:26.251Z,5.18
2022-11-18T09:59:53.773Z,8.23
2022-11-18T10:02:55.073Z,9.50
2022-11-18T10:05:24.249Z,7.95
2022-11-18T10:07:54.668Z,7.63
2022-11-18T10:10:30.792Z,10.90
2022-11-18T10:13:08.973Z,10.32
2022-11-18T10:15:43.066Z,10.68
2022-11-18T10:18:58.959Z,10.30
2022-11-18T10:21:59.631Z,10.43
2022-11-18T10:24:33.553Z,12.38
2022-11-18T10:27:01.512Z,13.65
2022-11-18T10:29:29.076Z,9.20
2022-11-18T10:32:07.588Z,8.88
2022-11-18T10:34:46.011Z,12.02
2022-11-18T10:38:07.334Z,10.13
2022-11-18T10:40:28.125Z,10.23
2022-11-18T10:42:56.290Z,10.20
2022-11-18T10:45:23.769Z,9.38
2022-11-18T10:48:03.260Z,7.43
2022-11-18T10:50:39.940Z,10.90
2022-11-18T10:53:34.734Z,13.63
2022-11-18T10:56:08.293Z,5.05
2022-11-18T10:58:41.357Z,8.32
2022-11-18T11:01:20.433Z,7.90
2022-11-18T11:04:04.891Z,5.75
2022-11-18T11:06:35.392Z,10.63
2022-11-18T11:09:06.197Z,11.15
2022-11-18T11:11:43.766Z,12.32
2022-11-18T11:14:29.117Z,6.28
2022-11-18T11:16:59.681Z,6.63
2022-11-18T11:19:35.779Z,10.50
2022-11-18T11:22:03.288Z,7.00
2022-11-18T11:24:30.670Z,6.85
2022-11-18T11:30:16.285Z,9.48
2022-11-18T11:33:04.698Z,7.35
2022-11-18T11:35:49.637Z,7.15
2022-11-18T11:38:26.201Z,9.68
2022-11-18T11:41:22.434Z,9.27
2022-11-18T11:44:17.967Z,9.57
2022-11-18T11:47:16.168Z,8.52
2022-11-18T11:50:03.615Z,6.18
2022-11-18T11:53:14.630Z,9.50
2022-11-18T11:56:12.336Z,6.22
2022-11-18T11:58:54.846Z,12.48
2022-11-18T12:01:34.339Z,6.78
2022-11-18T12:04:35.173Z,11.65
2022-11-18T12:07:06.111Z,10.45
2022-11-18T12:09:33.651Z,7.13
2022-11-18T12:12:36.258Z,7.75
2022-11-18T12:15:18.199Z,10.05
2022-11-18T12:18:04.174Z,9.80
2022-11-18T12:20:45.008Z,8.60
2022-11-18T12:23:25.638Z,8.65
2022-11-18T12:25:54.918Z,14.27
2022-11-18T12:28:38.080Z,11.93
2022-11-18T12:31:23.623Z,9.73
2022-11-18T12:34:04.580Z,7.05
2022-11-18T12:36:38.650Z,8.60
2022-11-18T12:39:24.788Z,11.02
2022-11-18T12:42:13.578Z,8.18
2022-11-18T12:44:42.540Z,9.45
2022-11-18T12:47:14.718Z,12.13
2022-11-18T12:49:45.242Z,7.90
2022-11-18T12:52:32.017Z,9.95
2022-11-18T12:55:18.192Z,6.53
2022-11-18T12:57:45.936Z,7.72
2022-11-18T13:00:22.788Z,7.63
2022-11-18T13:02:55.676Z,9.13
2022-11-18T13:05:30.568Z,8.73
2022-11-18T13:08:14.164Z,12.57
2022-11-18T13:10:50.473Z,9.95
2022-11-18T13:13:27.481Z,6.32
2022-11-18T13:16:16.347Z,8.35
2022-11-18T13:18:51.679Z,2.92
2022-11-18T13:21:43.784Z,7.63
2022-11-18T13:24:16.668Z,6.20
2022-11-18T13:26:46.420Z,5.57
2022-11-18T13:29:54.459Z,6.97
2022-11-18T13:32:27.612Z,8.05
2022-11-18T13:35:19.916Z,5.40
2022-11-18T13:38:02.280Z,6.40
2022-11-18T13:40:38.195Z,13.35
2022-11-18T13:43:06.110Z,5.65
2022-11-18T13:45:34.990Z,8.88
2022-11-18T13:48:10.610Z,6.25
2022-11-18T13:50:40.352Z,8.68
2022-11-18T13:53:32.212Z,9.25
2022-11-18T13:56:03.757Z,7.20
2022-11-18T13:59:15.805Z,7.38
2022-11-18T14:01:33.923Z,8.32
2022-11-18T14:04:15.332Z,13.02
2022-11-18T14:06:42.867Z,5.45
2022-11-18T14:09:31.867Z,7.47
2022-11-18T14:12:21.632Z,12.40
2022-11-18T14:14:49.047Z,12.13
2022-11-18T14:19:55.249Z,15.15
2022-11-18T14:22:34.354Z,9.38
2022-11-18T14:25:21.838Z,8.40
2022-11-18T14:28:18.215Z,9.48
2022-11-18T14:31:07.586Z,7.93
2022-11-18T14:33:37.151Z,7.15
2022-11-18T14:36:16.397Z,5.43
2022-11-18T14:39:19.388Z,4.65
2022-11-18T14:41:48.755Z,6.00
2022-11-18T14:44:17.783Z,5.57
2022-11-18T14:46:48.704Z,4.47
2022-11-18T14:49:22.084Z,3.08
2022-11-18T14:51:51.669Z,5.70
2022-11-18T14:54:26.497Z,5.05
2022-11-18T14:57:00.996Z,6.25
2022-11-18T14:59:28.738Z,3.78
2022-11-18T15:01:56.768Z,4.05
2022-11-18T15:04:25.384Z,6.60
2022-11-18T15:06:52.834Z,2.78
2022-11-18T15:09:20.455Z,6.38
2022-11-18T15:11:47.935Z,5.60
2022-11-18T15:14:15.934Z,7.55
2022-11-18T15:16:43.581Z,7.43
2022-11-18T15:19:15.317Z,3.13
2022-11-18T15:21:43.950Z,4.57
2022-11-18T15:24:11.345Z,3.97
2022-11-18T15:26:42.550Z,12.20
2022-11-18T15:29:16.258Z,4.43
2022-11-18T15:31:43.846Z,5.53
2022-11-18T15:34:11.204Z,4.50
2022-11-18T15:36:39.178Z,5.68
2022-11-18T15:39:12.024Z,7.93
2022-11-18T15:41:43.143Z,8.93
2022-11-18T15:44:11.931Z,3.75
2022-11-18T15:46:39.847Z,11.32
2022-11-18T15:49:09.707Z,5.72
2022-11-18T15:51:37.569Z,3.08
2022-11-18T15:54:05.103Z,6.47
2022-11-18T15:56:33.809Z,4.28
2022-11-18T15:59:04.375Z,6.22
2022-11-18T16:01:34.633Z,9.98
2022-11-18T16:04:03.119Z,8.02
2022-11-18T16:06:31.073Z,9.73
2022-11-18T16:09:00.260Z,2.63
2022-11-18T16:11:47.789Z,4.45
2022-11-18T16:14:18.528Z,7.13
2022-11-18T16:16:49.086Z,4.00
2022-11-18T16:19:21.404Z,6.47
2022-11-18T16:21:51.053Z,3.58
2022-11-18T16:24:26.128Z,2.78
2022-11-18T16:26:53.885Z,4.72
2022-11-18T16:29:21.676Z,4.82
2022-11-18T16:31:54.382Z,2.65
2022-11-18T16:34:24.968Z,4.22
2022-11-18T16:36:55.079Z,8.50
2022-11-18T16:39:27.888Z,4.88
2022-11-18T16:42:06.443Z,9.18
2022-11-18T16:44:35.161Z,5.05
2022-11-18T16:47:05.332Z,7.57
2022-11-18T16:49:35.193Z,8.90
2022-11-18T16:52:02.701Z,4.15
2022-11-18T16:54:32.001Z,3.38
2022-11-18T16:56:59.925Z,5.22
2022-11-18T16:59:29.680Z,5.53
2022-11-18T17:01:59.628Z,6.80
2022-11-18T17:04:28.630Z,7.72
2022-11-18T17:06:56.978Z,7.40
2022-11-18T17:09:24.779Z,7.13
2022-11-18T17:11:54.222Z,5.43
2022-11-18T17:14:22.302Z,4.20
2022-11-18T17:16:50.737Z,4.22
2022-11-18T17:19:21.292Z,6.10
2022-11-18T17:21:50.205Z,8.95
2022-11-18T17:24:22.665Z,12.38
2022-11-18T17:26:52.300Z,11.25
2022-11-18T17:29:20.987Z,9.95
2022-11-18T17:31:49.187Z,14.60
2022-11-18T17:34:17.241Z,14.60
2022-11-18T17:36:45.155Z,16.27
2022-11-18T17:39:13.497Z,19.83
2022-11-18T17:41:59.808Z,22.48
2022-11-18T17:44:28.678Z,20.60
2022-11-18T17:46:56.565Z,18.35
2022-11-18T17:49:24.149Z,17.13
2022-11-18T17:51:51.649Z,14.68
2022-11-18T17:54:20.636Z,18.05
2022-11-18T17:56:50.135Z,18.83
2022-11-18T17:59:18.239Z,17.70
2022-11-18T18:01:46.271Z,16.92
2022-11-18T18:04:21.554Z,24.10
2022-11-18T18:06:51.388Z,28.15
2022-11-18T18:09:21.833Z,24.35
2022-11-18T18:11:52.830Z,21.13
2022-11-18T18:16:50.082Z,14.05
2022-11-18T18:19:20.048Z,16.17
2022-11-18T18:21:48.083Z,13.48
2022-11-18T18:24:18.579Z,12.38
2022-11-18T18:26:46.449Z,10.73
2022-11-18T18:29:13.985Z,14.52
2022-11-18T18:31:41.400Z,17.80
2022-11-18T18:36:36.589Z,16.08
2022-11-18T18:39:04.325Z,20.65
2022-11-18T18:41:32.678Z,23.15
2022-11-18T18:44:00.774Z,21.27
2022-11-18T18:46:29.265Z,21.02
2022-11-18T18:49:01.816Z,24.50
2022-11-18T18:51:31.661Z,22.27
2022-11-18T18:53:59.469Z,25.50
2022-11-18T18:56:27.611Z,21.88
2022-11-18T18:58:57.069Z,18.83
2022-11-18T19:01:25.116Z,26.88
2022-11-18T19:03:57.968Z,23.25
2022-11-18T19:09:19.366Z,21.75
2022-11-18T19:12:05.424Z,19.45
2022-11-18T19:14:35.027Z,19.77
2022-11-18T19:17:09.601Z,21.42
2022-11-18T19:19:58.741Z,24.38
2022-11-18T19:22:28.859Z,22.05
2022-11-18T19:24:56.645Z,23.73
2022-11-18T19:27:24.458Z,22.77
2022-11-18T19:29:51.857Z,26.95
2022-11-18T19:37:13.812Z,27.65
2022-11-18T19:39:41.144Z,25.70
2022-11-18T19:42:11.161Z,28.88
2022-11-18T19:44:39.371Z,31.00
2022-11-18T19:47:07.082Z,33.30
2022-11-18T19:49:34.556Z,27.73
2022-11-18T19:52:02.471Z,30.60
2022-11-18T19:54:29.886Z,33.17
2022-11-18T19:59:24.940Z,28.10
2022-11-18T20:04:19.725Z,29.25
2022-11-18T20:11:46.326Z,26.40
2022-11-18T20:14:13.951Z,24.08
2022-11-18T20:16:41.922Z,24.27
2022-11-18T20:19:17.419Z,25.90
2022-11-18T20:21:45.100Z,30.27
2022-11-18T20:24:18.318Z,26.65
2022-11-18T20:26:45.901Z,24.73
2022-11-18T20:31:41.193Z,33.42
2022-11-18T20:34:13.200Z,31.05
2022-11-18T20:36:41.217Z,31.70
2022-11-18T20:39:14.674Z,27.92
2022-11-18T20:41:42.569Z,28.85
2022-11-18T20:44:10.028Z,27.95
2022-11-18T20:56:28.186Z,25.23
2022-11-18T20:58:58.436Z,30.17
2022-11-18T21:01:28.540Z,29.30
2022-11-18T21:04:00.984Z,28.85
2022-11-18T21:06:30.603Z,33.97
2022-11-18T21:09:02.775Z,29.95
2022-11-18T21:11:31.006Z,27.42
2022-11-18T21:14:22.867Z,24.65
2022-11-18T21:16:55.486Z,27.77
2022-11-18T21:19:24.059Z,27.30
2022-11-18T21:21:54.537Z,27.20
2022-11-18T21:24:24.352Z,28.17
2022-11-18T21:26:54.755Z,26.60
2022-11-18T21:29:24.140Z,21.17
2022-11-18T21:31:52.882Z,23.55
2022-11-18T21:34:20.543Z,22.65
2022-11-18T21:36:54.054Z,24.08
2022-11-18T21:39:24.321Z,27.55
2022-11-18T21:41:59.175Z,24.67
2022-11-18T21:44:29.383Z,26.90
2022-11-18T21:46:57.721Z,25.55
2022-11-18T21:49:25.296Z,25.13
2022-11-18T21:54:20.288Z,24.00
2022-11-18T21:56:47.699Z,23.80
2022-11-18T22:04:29.972Z,27.48
2022-11-18T22:06:57.497Z,20.88
2022-11-18T22:16:46.681Z,17.50
2022-11-18T22:21:41.332Z,20.70
2022-11-18T22:24:09.199Z,23.80
2022-11-18T22:26:36.608Z,23.65
2022-11-18T22:29:04.004Z,22.70
2022-11-18T22:38:55.085Z,24.83
2022-11-18T22:41:43.524Z,24.35
2022-11-18T22:44:12.412Z,22.42
2022-11-18T22:46:41.295Z,22.17
2022-11-18T22:49:10.294Z,22.17
2022-11-18T22:51:38.628Z,16.20
2022-11-18T22:56:55.205Z,16.02
2022-11-18T22:59:23.059Z,17.67
2022-11-18T23:01:52.135Z,14.65
2022-11-18T23:04:19.851Z,16.95
2022-11-18T23:06:49.033Z,15.93
2022-11-18T23:09:17.383Z,17.20
2022-11-18T23:12:03.905Z,18.92
2022-11-18T23:14:31.641Z,15.55
2022-11-18T23:16:59.422Z,17.65
2022-11-18T23:19:26.921Z,13.68
2022-11-18T23:24:22.060Z,21.20
2022-11-18T23:26:50.122Z,16.75
2022-11-18T23:29:18.058Z,15.75
2022-11-18T23:31:46.160Z,12.63
2022-11-18T23:34:15.920Z,13.48
2022-11-18T23:36:43.784Z,16.52
2022-11-18T23:39:11.908Z,16.33
2022-11-18T23:41:40.267Z,18.92
2022-11-18T23:44:07.722Z,27.75
2022-11-18T23:46:35.348Z,17.92
2022-11-18T23:49:02.854Z,14.13
2022-11-18T23:51:30.269Z,13.60
2022-11-18T23:58:56.689Z,10.70
